sensor_id;sensor_type;location;lat;lon;timestamp;pressure;altitude;pressure_sealevel;temperature;humidity
32733;BME280;11867;51.198;11.966;2023-10-13T00:01:41;100324.06;;;16.53;100.00
32733;BME280;11867;51.198;11.966;2023-10-13T00:03:04;100335.44;;;16.11;100.00
32733;BME280;11867;51.198;11.966;2023-10-13T00:04:28;100332.69;;;16.11;100.00
32733;BME280;11867;51.198;11.966;2023-10-13T00:05:57;100329.22;;;15.88;100.00
32733;BME280;11867;51.198;11.966;2023-10-13T00:07:22;100337.34;;;15.71;100.00
32733;BME280;11867;51.198;11.966;2023-10-13T00:08:45;100335.38;;;15.94;100.00
32733;BME280;11867;51.198;11.966;2023-10-13T00:10:08;100332.66;;;15.71;100.00
32733;BME280;11867;51.198;11.966;2023-10-13T00:11:43;100328.94;;;15.99;100.00
32733;BME280;11867;51.198;11.966;2023-10-13T00:13:07;100324.81;;;15.87;100.00
32733;BME280;11867;51.198;11.966;2023-10-13T00:14:35;100326.09;;;16.12;100.00
32733;BME280;11867;51.198;11.966;2023-10-13T00:15:59;100319.66;;;15.86;100.00
32733;BME280;11867;51.198;11.966;2023-10-13T00:17:21;100335.44;;;16.11;100.00
32733;BME280;11867;51.198;11.966;2023-10-13T00:18:47;100329.38;;;16.32;100.00
32733;BME280;11867;51.198;11.966;2023-10-13T00:20:10;100325.50;;;16.42;100.00
32733;BME280;11867;51.198;11.966;2023-10-13T00:21:55;100330.63;;;16.17;100.00
32733;BME280;11867;51.198;11.966;2023-10-13T00:23:30;100329.72;;;15.90;100.00
32733;BME280;11867;51.198;11.966;2023-10-13T00:24:54;100326.06;;;15.50;100.00
32733;BME280;11867;51.198;11.966;2023-10-13T00:26:21;100331.75;;;15.53;100.00
32733;BME280;11867;51.198;11.966;2023-10-13T00:27:48;100324.16;;;15.28;100.00
32733;BME280;11867;51.198;11.966;2023-10-13T00:29:13;100316.50;;;15.47;100.00
32733;BME280;11867;51.198;11.966;2023-10-13T00:30:39;100316.09;;;15.31;100.00
32733;BME280;11867;51.198;11.966;2023-10-13T00:32:02;100312.53;;;15.31;100.00
32733;BME280;11867;51.198;11.966;2023-10-13T00:33:26;100311.47;;;15.41;100.00
32733;BME280;11867;51.198;11.966;2023-10-13T00:34:48;100309.09;;;15.25;100.00
32733;BME280;11867;51.198;11.966;2023-10-13T00:36:17;100311.16;;;15.42;100.00
32733;BME280;11867;51.198;11.966;2023-10-13T00:37:41;100313.00;;;15.78;100.00
32733;BME280;11867;51.198;11.966;2023-10-13T00:39:06;100301.06;;;15.60;100.00
32733;BME280;11867;51.198;11.966;2023-10-13T00:40:30;100309.47;;;15.86;100.00
32733;BME280;11867;51.198;11.966;2023-10-13T00:42:06;100313.47;;;15.49;100.00
32733;BME280;11867;51.198;11.966;2023-10-13T00:43:30;100310.41;;;15.50;100.00
32733;BME280;11867;51.198;11.966;2023-10-13T00:44:57;100319.25;;;15.47;100.00
32733;BME280;11867;51.198;11.966;2023-10-13T00:46:23;100322.84;;;15.03;100.00
32733;BME280;11867;51.198;11.966;2023-10-13T00:47:54;100313.22;;;15.14;100.00
32733;BME280;11867;51.198;11.966;2023-10-13T00:49:18;100322.72;;;15.30;100.00
32733;BME280;11867;51.198;11.966;2023-10-13T00:50:41;100316.66;;;15.42;100.00
32733;BME280;11867;51.198;11.966;2023-10-13T00:52:07;100319.69;;;15.63;100.00
32733;BME280;11867;51.198;11.966;2023-10-13T00:53:32;100315.72;;;15.47;100.00
32733;BME280;11867;51.198;11.966;2023-10-13T00:54:55;100312.72;;;15.12;100.00
32733;BME280;11867;51.198;11.966;2023-10-13T00:56:21;100327.00;;;15.45;100.00
32733;BME280;11867;51.198;11.966;2023-10-13T00:57:45;100327.38;;;15.75;100.00
32733;BME280;11867;51.198;11.966;2023-10-13T00:59:09;100325.97;;;15.86;100.00
32733;BME280;11867;51.198;11.966;2023-10-13T01:00:35;100325.03;;;16.00;100.00
32733;BME280;11867;51.198;11.966;2023-10-13T01:02:10;100326.09;;;16.12;100.00
32733;BME280;11867;51.198;11.966;2023-10-13T01:03:48;100328.19;;;16.24;100.00
32733;BME280;11867;51.198;11.966;2023-10-13T01:05:11;100330.34;;;16.27;100.00
32733;BME280;11867;51.198;11.966;2023-10-13T01:06:41;100321.97;;;15.16;100.00
32733;BME280;11867;51.198;11.966;2023-10-13T01:08:05;100326.81;;;15.19;100.00
32733;BME280;11867;51.198;11.966;2023-10-13T01:09:40;100319.81;;;15.36;100.00
32733;BME280;11867;51.198;11.966;2023-10-13T01:11:04;100316.69;;;15.51;100.00
32733;BME280;11867;51.198;11.966;2023-10-13T01:12:29;100319.59;;;15.77;100.00
32733;BME280;11867;51.198;11.966;2023-10-13T01:13:53;100317.50;;;15.51;100.00
32733;BME280;11867;51.198;11.966;2023-10-13T01:15:16;100321.56;;;15.54;100.00
32733;BME280;11867;51.198;11.966;2023-10-13T01:16:39;100325.19;;;15.94;100.00
32733;BME280;11867;51.198;11.966;2023-10-13T01:18:07;100320.59;;;16.21;100.00
32733;BME280;11867;51.198;11.966;2023-10-13T01:19:36;100312.38;;;16.47;100.00
32733;BME280;11867;51.198;11.966;2023-10-13T01:21:04;100326.88;;;16.70;100.00
32733;BME280;11867;51.198;11.966;2023-10-13T01:22:26;100322.16;;;16.80;100.00
32733;BME280;11867;51.198;11.966;2023-10-13T01:23:52;100324.31;;;16.83;100.00
32733;BME280;11867;51.198;11.966;2023-10-13T01:25:14;100328.53;;;16.89;100.00
32733;BME280;11867;51.198;11.966;2023-10-13T01:26:40;100327.31;;;16.64;100.00
32733;BME280;11867;51.198;11.966;2023-10-13T01:28:04;100327.66;;;16.05;100.00
32733;BME280;11867;51.198;11.966;2023-10-13T01:29:31;100329.06;;;15.93;100.00
32733;BME280;11867;51.198;11.966;2023-10-13T01:30:53;100330.25;;;16.10;100.00
32733;BME280;11867;51.198;11.966;2023-10-13T01:32:17;100327.22;;;16.20;100.00
32733;BME280;11867;51.198;11.966;2023-10-13T01:33:39;100320.81;;;16.42;100.00
32733;BME280;11867;51.198;11.966;2023-10-13T01:35:02;100319.34;;;16.45;100.00
32733;BME280;11867;51.198;11.966;2023-10-13T01:36:28;100335.94;;;16.71;100.00
32733;BME280;11867;51.198;11.966;2023-10-13T01:37:50;100325.72;;;16.80;100.00
32733;BME280;11867;51.198;11.966;2023-10-13T01:39:14;100335.16;;;16.88;100.00
32733;BME280;11867;51.198;11.966;2023-10-13T01:40:38;100321.06;;;17.07;100.00
32733;BME280;11867;51.198;11.966;2023-10-13T01:42:00;100328.09;;;16.38;100.00
32733;BME280;11867;51.198;11.966;2023-10-13T01:43:22;100336.81;;;15.91;100.00
32733;BME280;11867;51.198;11.966;2023-10-13T01:44:45;100335.16;;;15.82;100.00
32733;BME280;11867;51.198;11.966;2023-10-13T01:46:08;100328.84;;;16.21;100.00
32733;BME280;11867;51.198;11.966;2023-10-13T01:47:31;100328.75;;;16.35;100.00
32733;BME280;11867;51.198;11.966;2023-10-13T01:48:54;100322.59;;;16.38;100.00
32733;BME280;11867;51.198;11.966;2023-10-13T01:50:20;100320.94;;;16.28;100.00
32733;BME280;11867;51.198;11.966;2023-10-13T01:51:50;100316.63;;;15.96;100.00
32733;BME280;11867;51.198;11.966;2023-10-13T01:53:12;100312.50;;;15.53;100.00
32733;BME280;11867;51.198;11.966;2023-10-13T01:54:35;100305.19;;;15.18;100.00
32733;BME280;11867;51.198;11.966;2023-10-13T01:56:02;100299.53;;;14.78;100.00
32733;BME280;11867;51.198;11.966;2023-10-13T01:57:32;100299.88;;;14.62;100.00
32733;BME280;11867;51.198;11.966;2023-10-13T01:58:54;100298.28;;;14.84;100.00
32733;BME280;11867;51.198;11.966;2023-10-13T02:00:17;100302.34;;;15.31;100.00
32733;BME280;11867;51.198;11.966;2023-10-13T02:01:41;100299.50;;;15.68;100.00
32733;BME280;11867;51.198;11.966;2023-10-13T02:03:04;100302.34;;;15.31;100.00
32733;BME280;11867;51.198;11.966;2023-10-13T02:04:29;100297.84;;;15.13;100.00
32733;BME280;11867;51.198;11.966;2023-10-13T02:05:54;100302.03;;;15.33;100.00
32733;BME280;11867;51.198;11.966;2023-10-13T02:07:19;100295.78;;;15.41;100.00
32733;BME280;11867;51.198;11.966;2023-10-13T02:08:42;100301.25;;;15.64;100.00
32733;BME280;11867;51.198;11.966;2023-10-13T02:10:07;100296.22;;;15.88;100.00
32733;BME280;11867;51.198;11.966;2023-10-13T02:11:33;100288.66;;;16.03;100.00
32733;BME280;11867;51.198;11.966;2023-10-13T02:12:58;100294.09;;;15.31;100.00
32733;BME280;11867;51.198;11.966;2023-10-13T02:14:20;100287.50;;;14.87;100.00
32733;BME280;11867;51.198;11.966;2023-10-13T02:15:44;100291.44;;;14.95;100.00
32733;BME280;11867;51.198;11.966;2023-10-13T02:17:08;100296.78;;;15.00;100.00
32733;BME280;11867;51.198;11.966;2023-10-13T02:18:38;100290.81;;;15.21;100.00
32733;BME280;11867;51.198;11.966;2023-10-13T02:20:06;100297.81;;;15.58;100.00
32733;BME280;11867;51.198;11.966;2023-10-13T02:21:36;100303.97;;;15.86;100.00
32733;BME280;11867;51.198;11.966;2023-10-13T02:23:01;100300.34;;;16.08;100.00
32733;BME280;11867;51.198;11.966;2023-10-13T02:24:23;100298.72;;;16.16;100.00
32733;BME280;11867;51.198;11.966;2023-10-13T02:25:52;100301.81;;;16.14;100.00
32733;BME280;11867;51.198;11.966;2023-10-13T02:27:22;100291.34;;;16.34;100.00
32733;BME280;11867;51.198;11.966;2023-10-13T02:28:45;100284.56;;;16.40;100.00
32733;BME280;11867;51.198;11.966;2023-10-13T02:30:13;100285.75;;;16.08;100.00
32733;BME280;11867;51.198;11.966;2023-10-13T02:31:36;100284.47;;;16.14;100.00
32733;BME280;11867;51.198;11.966;2023-10-13T02:32:58;100279.97;;;16.18;100.00
32733;BME280;11867;51.198;11.966;2023-10-13T02:34:27;100284.72;;;15.86;100.00
32733;BME280;11867;51.198;11.966;2023-10-13T02:35:49;100284.25;;;15.30;100.00
32733;BME280;11867;51.198;11.966;2023-10-13T02:37:15;100288.41;;;15.50;100.00
32733;BME280;11867;51.198;11.966;2023-10-13T02:38:41;100275.50;;;15.82;100.00
32733;BME280;11867;51.198;11.966;2023-10-13T02:40:09;100290.56;;;15.93;100.00
32733;BME280;11867;51.198;11.966;2023-10-13T02:41:33;100277.31;;;15.96;100.00
32733;BME280;11867;51.198;11.966;2023-10-13T02:42:58;100274.13;;;16.11;100.00
32733;BME280;11867;51.198;11.966;2023-10-13T02:44:23;100280.56;;;15.98;100.00
32733;BME280;11867;51.198;11.966;2023-10-13T02:45:52;100279.75;;;15.66;100.00
32733;BME280;11867;51.198;11.966;2023-10-13T02:47:19;100265.00;;;15.84;100.00
32733;BME280;11867;51.198;11.966;2023-10-13T02:48:45;100275.69;;;15.54;100.00
32733;BME280;11867;51.198;11.966;2023-10-13T02:50:14;100267.75;;;15.93;100.00
32733;BME280;11867;51.198;11.966;2023-10-13T02:51:39;100268.94;;;16.09;100.00
32733;BME280;11867;51.198;11.966;2023-10-13T02:53:06;100272.22;;;16.20;100.00
32733;BME280;11867;51.198;11.966;2023-10-13T02:54:34;100268.53;;;16.33;100.00
32733;BME280;11867;51.198;11.966;2023-10-13T02:56:01;100271.09;;;16.21;100.00
32733;BME280;11867;51.198;11.966;2023-10-13T02:57:29;100272.63;;;15.96;100.00
32733;BME280;11867;51.198;11.966;2023-10-13T02:58:56;100276.22;;;16.14;100.00
32733;BME280;11867;51.198;11.966;2023-10-13T03:00:18;100279.94;;;16.01;100.00
32733;BME280;11867;51.198;11.966;2023-10-13T03:01:44;100282.94;;;15.82;100.00
32733;BME280;11867;51.198;11.966;2023-10-13T03:03:06;100278.22;;;14.97;100.00
32733;BME280;11867;51.198;11.966;2023-10-13T03:04:29;100275.91;;;14.90;100.00
32733;BME280;11867;51.198;11.966;2023-10-13T03:05:53;100276.56;;;15.19;100.00
32733;BME280;11867;51.198;11.966;2023-10-13T03:07:15;100268.13;;;15.38;100.00
32733;BME280;11867;51.198;11.966;2023-10-13T03:08:44;100270.22;;;14.87;100.00
32733;BME280;11867;51.198;11.966;2023-10-13T03:10:09;100262.09;;;14.82;100.00
32733;BME280;11867;51.198;11.966;2023-10-13T03:11:32;100260.09;;;14.73;100.00
32733;BME280;11867;51.198;11.966;2023-10-13T03:12:56;100260.97;;;14.60;100.00
32733;BME280;11867;51.198;11.966;2023-10-13T03:14:19;100256.56;;;14.96;100.00
32733;BME280;11867;51.198;11.966;2023-10-13T03:15:46;100260.06;;;14.87;100.00
32733;BME280;11867;51.198;11.966;2023-10-13T03:17:10;100256.00;;;14.85;100.00
32733;BME280;11867;51.198;11.966;2023-10-13T03:18:36;100255.63;;;15.00;100.00
32733;BME280;11867;51.198;11.966;2023-10-13T03:19:59;100255.75;;;14.95;100.00
32733;BME280;11867;51.198;11.966;2023-10-13T03:21:23;100260.09;;;15.19;100.00
32733;BME280;11867;51.198;11.966;2023-10-13T03:22:52;100252.25;;;15.03;100.00
32733;BME280;11867;51.198;11.966;2023-10-13T03:24:15;100251.88;;;14.96;100.00
32733;BME280;11867;51.198;11.966;2023-10-13T03:25:44;100249.84;;;14.65;100.00
32733;BME280;11867;51.198;11.966;2023-10-13T03:27:12;100248.75;;;15.11;100.00
32733;BME280;11867;51.198;11.966;2023-10-13T03:28:40;100238.13;;;15.19;100.00
32733;BME280;11867;51.198;11.966;2023-10-13T03:30:02;100233.91;;;15.12;100.00
32733;BME280;11867;51.198;11.966;2023-10-13T03:31:32;100237.41;;;14.82;100.00
32733;BME280;11867;51.198;11.966;2023-10-13T03:32:59;100230.75;;;14.74;100.00
32733;BME280;11867;51.198;11.966;2023-10-13T03:34:27;100233.53;;;14.60;100.00
32733;BME280;11867;51.198;11.966;2023-10-13T03:35:51;100233.59;;;14.55;100.00
32733;BME280;11867;51.198;11.966;2023-10-13T03:37:17;100234.50;;;14.78;100.00
32733;BME280;11867;51.198;11.966;2023-10-13T03:38:40;100233.53;;;14.60;100.00
32733;BME280;11867;51.198;11.966;2023-10-13T03:40:08;100237.88;;;14.61;100.00
32733;BME280;11867;51.198;11.966;2023-10-13T03:41:52;100232.28;;;14.52;100.00
32733;BME280;11867;51.198;11.966;2023-10-13T03:43:18;100233.00;;;14.72;100.00
32733;BME280;11867;51.198;11.966;2023-10-13T03:44:45;100227.94;;;15.19;100.00
32733;BME280;11867;51.198;11.966;2023-10-13T03:46:08;100216.88;;;15.33;100.00
32733;BME280;11867;51.198;11.966;2023-10-13T03:47:30;100224.22;;;15.15;100.00
32733;BME280;11867;51.198;11.966;2023-10-13T03:48:54;100216.91;;;15.10;100.00
32733;BME280;11867;51.198;11.966;2023-10-13T03:50:17;100222.03;;;15.26;100.00
32733;BME280;11867;51.198;11.966;2023-10-13T03:51:51;100209.41;;;14.93;100.00
32733;BME280;11867;51.198;11.966;2023-10-13T03:53:16;100206.84;;;14.75;100.00
32733;BME280;11867;51.198;11.966;2023-10-13T03:54:41;100202.13;;;15.20;100.00
32733;BME280;11867;51.198;11.966;2023-10-13T03:56:05;100200.03;;;15.57;100.00
32733;BME280;11867;51.198;11.966;2023-10-13T03:57:34;100199.06;;;15.62;100.00
32733;BME280;11867;51.198;11.966;2023-10-13T03:59:00;100203.78;;;15.70;100.00
32733;BME280;11867;51.198;11.966;2023-10-13T04:00:29;100198.03;;;15.80;100.00
32733;BME280;11867;51.198;11.966;2023-10-13T04:01:53;100202.28;;;16.04;100.00
32733;BME280;11867;51.198;11.966;2023-10-13T04:03:21;100188.72;;;16.16;100.00
32733;BME280;11867;51.198;11.966;2023-10-13T04:04:55;100193.22;;;16.12;100.00
32733;BME280;11867;51.198;11.966;2023-10-13T04:06:29;100190.50;;;16.29;100.00
32733;BME280;11867;51.198;11.966;2023-10-13T04:08:13;100192.59;;;16.32;100.00
32733;BME280;11867;51.198;11.966;2023-10-13T04:09:54;100187.09;;;16.32;100.00
32733;BME280;11867;51.198;11.966;2023-10-13T04:12:02;100187.44;;;16.57;100.00
32733;BME280;11867;51.198;11.966;2023-10-13T04:13:48;100184.66;;;16.66;100.00
32733;BME280;11867;51.198;11.966;2023-10-13T04:15:44;100183.84;;;16.74;100.00
32733;BME280;11867;51.198;11.966;2023-10-13T04:17:28;100179.34;;;16.87;100.00
32733;BME280;11867;51.198;11.966;2023-10-13T04:18:52;100186.13;;;16.89;100.00
32733;BME280;11867;51.198;11.966;2023-10-13T04:20:30;100181.13;;;16.91;100.00
32733;BME280;11867;51.198;11.966;2023-10-13T04:21:55;100179.63;;;16.94;100.00
32733;BME280;11867;51.198;11.966;2023-10-13T04:23:20;100171.06;;;16.96;100.00
32733;BME280;11867;51.198;11.966;2023-10-13T04:24:48;100170.44;;;16.81;100.00
32733;BME280;11867;51.198;11.966;2023-10-13T04:26:31;100176.09;;;16.85;100.00
32733;BME280;11867;51.198;11.966;2023-10-13T04:28:05;100184.81;;;16.96;100.00
32733;BME280;11867;51.198;11.966;2023-10-13T04:29:39;100181.06;;;17.09;100.00
32733;BME280;11867;51.198;11.966;2023-10-13T04:31:09;100175.72;;;17.12;100.00
32733;BME280;11867;51.198;11.966;2023-10-13T04:32:42;100176.31;;;17.27;100.00
32733;BME280;11867;51.198;11.966;2023-10-13T04:34:09;100190.13;;;17.09;100.00
32733;BME280;11867;51.198;11.966;2023-10-13T04:35:41;100187.38;;;17.09;100.00
32733;BME280;11867;51.198;11.966;2023-10-13T04:37:20;100187.84;;;17.11;100.00
32733;BME280;11867;51.198;11.966;2023-10-13T04:38:52;100188.31;;;17.13;100.00
32733;BME280;11867;51.198;11.966;2023-10-13T04:40:19;100186.75;;;16.78;100.00
32733;BME280;11867;51.198;11.966;2023-10-13T04:41:46;100188.72;;;16.86;100.00
32733;BME280;11867;51.198;11.966;2023-10-13T04:43:19;100194.84;;;17.00;100.00
32733;BME280;11867;51.198;11.966;2023-10-13T04:44:55;100186.88;;;17.16;100.00
32733;BME280;11867;51.198;11.966;2023-10-13T04:46:24;100192.19;;;17.21;100.00
32733;BME280;11867;51.198;11.966;2023-10-13T04:48:16;100186.38;;;17.23;100.00
32733;BME280;11867;51.198;11.966;2023-10-13T04:49:51;100185.88;;;17.21;100.00
32733;BME280;11867;51.198;11.966;2023-10-13T04:51:22;100184.69;;;17.39;100.00
32733;BME280;11867;51.198;11.966;2023-10-13T04:53:12;100191.09;;;17.22;100.00
32733;BME280;11867;51.198;11.966;2023-10-13T04:54:49;100174.19;;;17.32;100.00
32733;BME280;11867;51.198;11.966;2023-10-13T04:56:15;100176.78;;;17.29;100.00
32733;BME280;11867;51.198;11.966;2023-10-13T04:57:52;100173.34;;;17.41;100.00
32733;BME280;11867;51.198;11.966;2023-10-13T04:59:32;100175.53;;;17.56;100.00
32733;BME280;11867;51.198;11.966;2023-10-13T05:00:59;100164.72;;;17.51;100.00
32733;BME280;11867;51.198;11.966;2023-10-13T05:03:03;100173.56;;;17.57;100.00
32733;BME280;11867;51.198;11.966;2023-10-13T05:04:55;100163.19;;;17.62;100.00
32733;BME280;11867;51.198;11.966;2023-10-13T05:06:36;100164.56;;;17.47;100.00
32733;BME280;11867;51.198;11.966;2023-10-13T05:08:16;100162.66;;;17.39;100.00
32733;BME280;11867;51.198;11.966;2023-10-13T05:09:53;100166.09;;;17.27;100.00
32733;BME280;11867;51.198;11.966;2023-10-13T05:11:34;100168.03;;;17.27;100.00
32733;BME280;11867;51.198;11.966;2023-10-13T05:13:14;100165.78;;;17.29;100.00
32733;BME280;11867;51.198;11.966;2023-10-13T05:14:55;100162.69;;;17.22;100.00
32733;BME280;11867;51.198;11.966;2023-10-13T05:16:36;100159.75;;;17.35;100.00
32733;BME280;11867;51.198;11.966;2023-10-13T05:18:18;100160.78;;;17.52;100.00
32733;BME280;11867;51.198;11.966;2023-10-13T05:19:59;100157.50;;;17.67;100.00
32733;BME280;11867;51.198;11.966;2023-10-13T05:21:39;100166.31;;;17.90;100.00
32733;BME280;11867;51.198;11.966;2023-10-13T05:23:31;100159.31;;;17.93;100.00
32733;BME280;11867;51.198;11.966;2023-10-13T05:25:12;100170.47;;;17.97;100.00
32733;BME280;11867;51.198;11.966;2023-10-13T05:26:53;100173.59;;;18.16;100.00
32733;BME280;11867;51.198;11.966;2023-10-13T05:28:48;100169.00;;;18.20;100.00
32733;BME280;11867;51.198;11.966;2023-10-13T05:30:49;100166.56;;;17.98;100.00
32733;BME280;11867;51.198;11.966;2023-10-13T05:32:30;100170.59;;;18.00;100.00
32733;BME280;11867;51.198;11.966;2023-10-13T05:34:12;100169.53;;;17.92;100.00
32733;BME280;11867;51.198;11.966;2023-10-13T05:35:53;100174.19;;;18.01;100.00
32733;BME280;11867;51.198;11.966;2023-10-13T05:37:34;100163.56;;;18.11;100.00
32733;BME280;11867;51.198;11.966;2023-10-13T05:39:14;100162.59;;;17.78;100.00
32733;BME280;11867;51.198;11.966;2023-10-13T05:40:56;100169.28;;;17.77;100.00
32733;BME280;11867;51.198;11.966;2023-10-13T05:42:42;100166.78;;;17.92;100.00
32733;BME280;11867;51.198;11.966;2023-10-13T05:44:23;100159.56;;;18.00;100.00
32733;BME280;11867;51.198;11.966;2023-10-13T05:46:09;100160.97;;;18.06;100.00
32733;BME280;11867;51.198;11.966;2023-10-13T05:48:10;100165.38;;;18.07;100.00
32733;BME280;11867;51.198;11.966;2023-10-13T05:49:42;100169.47;;;17.71;100.00
32733;BME280;11867;51.198;11.966;2023-10-13T05:51:14;100172.06;;;17.68;100.00
32733;BME280;11867;51.198;11.966;2023-10-13T05:53:05;100167.56;;;17.93;100.00
32733;BME280;11867;51.198;11.966;2023-10-13T05:54:47;100170.53;;;17.79;100.00
32733;BME280;11867;51.198;11.966;2023-10-13T05:56:27;100173.03;;;18.02;100.00
32733;BME280;11867;51.198;11.966;2023-10-13T05:58:08;100173.84;;;17.72;100.00
32733;BME280;11867;51.198;11.966;2023-10-13T05:59:49;100160.31;;;17.80;100.00
32733;BME280;11867;51.198;11.966;2023-10-13T06:01:29;100166.97;;;18.08;100.00
32733;BME280;11867;51.198;11.966;2023-10-13T06:03:10;100159.19;;;17.81;100.00
32733;BME280;11867;51.198;11.966;2023-10-13T06:04:52;100157.50;;;17.59;100.00
32733;BME280;11867;51.198;11.966;2023-10-13T06:06:33;100156.53;;;17.63;100.00
32733;BME280;11867;51.198;11.966;2023-10-13T06:08:13;100160.66;;;17.48;100.00
32733;BME280;11867;51.198;11.966;2023-10-13T06:09:54;100155.75;;;17.24;100.00
32733;BME280;11867;51.198;11.966;2023-10-13T06:11:34;100152.16;;;17.32;100.00
32733;BME280;11867;51.198;11.966;2023-10-13T06:13:15;100159.47;;;17.58;100.00
32733;BME280;11867;51.198;11.966;2023-10-13T06:14:56;100159.63;;;17.62;100.00
32733;BME280;11867;51.198;11.966;2023-10-13T06:16:36;100155.44;;;17.55;100.00
32733;BME280;11867;51.198;11.966;2023-10-13T06:18:16;100147.91;;;17.65;100.00
32733;BME280;11867;51.198;11.966;2023-10-13T06:19:59;100168.38;;;17.64;100.00
32733;BME280;11867;51.198;11.966;2023-10-13T06:21:39;100155.59;;;17.50;100.00
32733;BME280;11867;51.198;11.966;2023-10-13T06:23:20;100150.56;;;17.52;100.00
32733;BME280;11867;51.198;11.966;2023-10-13T06:24:59;100156.91;;;17.53;100.00
32733;BME280;11867;51.198;11.966;2023-10-13T06:26:40;100149.69;;;17.69;100.00
32733;BME280;11867;51.198;11.966;2023-10-13T06:28:17;100146.72;;;17.74;100.00
32733;BME280;11867;51.198;11.966;2023-10-13T06:29:58;100146.63;;;17.92;100.00
32733;BME280;11867;51.198;11.966;2023-10-13T06:31:22;100142.28;;;17.91;100.00
32733;BME280;11867;51.198;11.966;2023-10-13T06:32:48;100140.94;;;17.67;100.00
32733;BME280;11867;51.198;11.966;2023-10-13T06:34:12;100135.28;;;17.64;100.00
32733;BME280;11867;51.198;11.966;2023-10-13T06:35:39;100141.13;;;17.92;100.00
32733;BME280;11867;51.198;11.966;2023-10-13T06:37:04;100139.38;;;17.87;100.00
32733;BME280;11867;51.198;11.966;2023-10-13T06:38:43;100154.81;;;17.88;100.00
32733;BME280;11867;51.198;11.966;2023-10-13T06:40:09;100144.75;;;17.84;100.00
32733;BME280;11867;51.198;11.966;2023-10-13T06:41:44;100148.19;;;18.02;100.00
32733;BME280;11867;51.198;11.966;2023-10-13T06:43:07;100150.31;;;18.05;100.00
32733;BME280;11867;51.198;11.966;2023-10-13T06:44:38;100147.00;;;18.11;100.00
32733;BME280;11867;51.198;11.966;2023-10-13T06:46:01;100146.19;;;18.11;100.00
32733;BME280;11867;51.198;11.966;2023-10-13T06:47:24;100148.81;;;18.07;100.00
32733;BME280;11867;51.198;11.966;2023-10-13T06:48:47;100136.97;;;17.77;100.00
32733;BME280;11867;51.198;11.966;2023-10-13T06:50:13;100144.97;;;17.70;100.00
32733;BME280;11867;51.198;11.966;2023-10-13T06:51:39;100141.06;;;17.71;100.00
32733;BME280;11867;51.198;11.966;2023-10-13T06:53:01;100134.88;;;17.83;100.00
32733;BME280;11867;51.198;11.966;2023-10-13T06:54:24;100129.50;;;17.78;100.00
32733;BME280;11867;51.198;11.966;2023-10-13T06:55:47;100133.41;;;17.77;100.00
32733;BME280;11867;51.198;11.966;2023-10-13T06:57:14;100132.25;;;17.86;100.00
32733;BME280;11867;51.198;11.966;2023-10-13T06:58:36;100131.47;;;18.07;100.00
32733;BME280;11867;51.198;11.966;2023-10-13T07:00:05;100129.44;;;18.16;100.00
32733;BME280;11867;51.198;11.966;2023-10-13T07:01:30;100133.06;;;18.29;100.00
32733;BME280;11867;51.198;11.966;2023-10-13T07:03:00;100134.06;;;18.45;100.00
32733;BME280;11867;51.198;11.966;2023-10-13T07:04:28;100136.63;;;18.50;100.00
32733;BME280;11867;51.198;11.966;2023-10-13T07:05:51;100122.41;;;18.40;100.00
32733;BME280;11867;51.198;11.966;2023-10-13T07:07:15;100114.63;;;18.54;100.00
32733;BME280;11867;51.198;11.966;2023-10-13T07:08:38;100127.25;;;18.76;100.00
32733;BME280;11867;51.198;11.966;2023-10-13T07:10:00;100122.06;;;18.74;100.00
32733;BME280;11867;51.198;11.966;2023-10-13T07:11:24;100125.22;;;18.52;100.00
32733;BME280;11867;51.198;11.966;2023-10-13T07:12:54;100126.09;;;18.44;100.00
32733;BME280;11867;51.198;11.966;2023-10-13T07:14:21;100116.16;;;18.64;100.00
32733;BME280;11867;51.198;11.966;2023-10-13T07:15:45;100112.25;;;18.52;100.00
32733;BME280;11867;51.198;11.966;2023-10-13T07:17:09;100118.16;;;18.75;100.00
32733;BME280;11867;51.198;11.966;2023-10-13T07:18:32;100112.44;;;18.81;100.00
32733;BME280;11867;51.198;11.966;2023-10-13T07:19:59;100121.59;;;18.72;100.00
32733;BME280;11867;51.198;11.966;2023-10-13T07:21:28;100111.13;;;18.66;100.00
32733;BME280;11867;51.198;11.966;2023-10-13T07:22:55;100118.75;;;18.69;100.00
32733;BME280;11867;51.198;11.966;2023-10-13T07:24:19;100118.16;;;18.75;100.00
32733;BME280;11867;51.198;11.966;2023-10-13T07:25:52;100118.16;;;18.75;100.00
32733;BME280;11867;51.198;11.966;2023-10-13T07:27:15;100117.38;;;18.75;100.00
32733;BME280;11867;51.198;11.966;2023-10-13T07:28:44;100116.06;;;18.72;100.00
32733;BME280;11867;51.198;11.966;2023-10-13T07:30:07;100112.31;;;18.77;100.00
32733;BME280;11867;51.198;11.966;2023-10-13T07:31:36;100115.69;;;18.95;100.00
32733;BME280;11867;51.198;11.966;2023-10-13T07:33:00;100117.09;;;19.01;100.00
32733;BME280;11867;51.198;11.966;2023-10-13T07:34:23;100122.25;;;18.90;100.00
32733;BME280;11867;51.198;11.966;2023-10-13T07:35:59;100125.13;;;18.82;100.00
32733;BME280;11867;51.198;11.966;2023-10-13T07:37:23;100117.78;;;18.98;100.00
32733;BME280;11867;51.198;11.966;2023-10-13T07:38:51;100124.25;;;19.14;100.00